Time;durP1;ratioP1;P1;durP2;ratioP2;P2;SDS_P1;SDS_P2;PMS_P1;PMS_P2;Temp;Humidity;BMP_temperature;BMP_pressure;BME280_temperature;BME280_humidity;BME280_pressure;Samples;Min_cycle;Max_cycle;Signal;HPM_P1;HPM_P2
2022/08/08 00:02:27;;;;;;;3.70;3.17;;;20.70;74.10;;;;;;5014535;28;20030;-17
2022/08/08 00:05:08;;;;;;;4.72;3.25;;;20.70;74.30;;;;;;5014642;28;20050;-16
2022/08/08 00:08:15;;;;;;;4.30;3.05;;;20.70;74.10;;;;;;5014663;28;20473;-15
2022/08/08 00:11:10;;;;;;;4.50;3.50;;;20.60;74.60;;;;;;4984055;28;20034;-16
2022/08/08 00:13:41;;;;;;;5.30;4.18;;;20.60;74.70;;;;;;5014457;28;20040;-15
2022/08/08 00:16:15;;;;;;;5.32;3.47;;;20.50;74.60;;;;;;5014364;28;20022;-15
2022/08/08 00:18:54;;;;;;;3.83;3.40;;;20.50;74.60;;;;;;5014710;28;20038;-14
2022/08/08 00:21:25;;;;;;;5.95;3.90;;;20.50;74.70;;;;;;5014578;28;20014;-14
2022/08/08 00:24:00;;;;;;;5.68;3.88;;;20.40;74.80;;;;;;5014580;28;20057;-16
2022/08/08 00:26:34;;;;;;;5.10;3.53;;;20.40;75.20;;;;;;5014055;28;20101;-15
2022/08/08 00:29:11;;;;;;;4.55;3.28;;;20.40;75.10;;;;;;5014138;28;20462;-15
2022/08/08 00:31:42;;;;;;;5.43;3.55;;;20.40;75.20;;;;;;5014499;28;20018;-14
2022/08/08 00:37:45;;;;;;;4.25;3.58;;;20.30;75.90;;;;;;5014111;28;20110;-17
2022/08/08 00:40:47;;;;;;;6.97;4.20;;;20.20;75.80;;;;;;5014868;28;20022;-16
2022/08/08 00:43:46;;;;;;;5.25;3.72;;;20.10;76.20;;;;;;5014324;28;20026;-15
2022/08/08 00:46:40;;;;;;;4.95;3.60;;;20.10;76.20;;;;;;5014102;28;20033;-15
2022/08/08 00:49:43;;;;;;;6.57;4.55;;;20.00;76.40;;;;;;5014132;28;20064;-16
2022/08/08 00:52:34;;;;;;;5.10;3.70;;;20.00;76.60;;;;;;5013760;28;20033;-16
2022/08/08 00:55:07;;;;;;;6.38;3.83;;;19.90;76.60;;;;;;5013808;28;20033;-16
2022/08/08 00:58:10;;;;;;;5.18;3.92;;;19.90;76.80;;;;;;5014148;28;20084;-16
2022/08/08 01:00:46;;;;;;;5.57;4.32;;;19.90;76.90;;;;;;5013579;28;20025;-17
2022/08/08 01:03:37;;;;;;;5.35;3.97;;;19.90;76.90;;;;;;5013734;28;20117;-16
2022/08/08 01:06:57;;;;;;;5.80;3.78;;;19.90;77.00;;;;;;5014016;28;20042;-15
2022/08/08 01:09:25;;;;;;;5.90;4.20;;;19.90;77.00;;;;;;4934366;29;20044;-16
2022/08/08 01:12:06;;;;;;;4.53;3.50;;;19.80;77.10;;;;;;4998226;28;20034;-16
2022/08/08 01:14:34;;;;;;;4.82;3.50;;;19.80;77.50;;;;;;5013642;28;20026;-16
2022/08/08 01:17:18;;;;;;;4.00;3.60;;;19.70;77.60;;;;;;5013465;28;20026;-17
2022/08/08 01:20:08;;;;;;;5.90;3.72;;;19.70;77.80;;;;;;5013681;28;20033;-15
2022/08/08 01:22:47;;;;;;;6.68;4.50;;;19.70;78.10;;;;;;5013156;28;20034;-15
2022/08/08 01:25:30;;;;;;;5.90;4.57;;;19.60;78.30;;;;;;5013439;28;20497;-15
2022/08/08 01:28:02;;;;;;;;;;;19.50;78.30;;;;;;5013743;28;20088;-16
2022/08/08 01:31:05;;;;;;;5.28;3.42;;;19.50;78.80;;;;;;5013079;28;20312;-14
2022/08/08 01:33:46;;;;;;;6.60;4.93;;;19.40;78.40;;;;;;4995701;28;20489;-16
2022/08/08 01:36:18;;;;;;;4.78;3.95;;;19.40;78.50;;;;;;5013221;28;20030;-17
2022/08/08 01:39:02;;;;;;;5.75;4.50;;;19.40;78.60;;;;;;5016424;28;20485;-15
2022/08/08 01:41:57;;;;;;;6.35;4.60;;;19.40;78.60;;;;;;5017657;28;20505;-15
2022/08/08 01:45:01;;;;;;;6.75;4.82;;;19.40;78.60;;;;;;5017159;28;20104;-15
2022/08/08 01:47:48;;;;;;;9.55;6.00;;;19.40;78.60;;;;;;5017187;28;20066;-15
2022/08/08 01:50:44;;;;;;;6.63;5.07;;;19.50;78.50;;;;;;5017344;28;20565;-15
2022/08/08 01:53:16;;;;;;;7.22;5.13;;;19.50;78.40;;;;;;5017067;28;20026;-17
2022/08/08 01:56:18;;;;;;;8.73;5.25;;;19.60;78.30;;;;;;5017062;28;20130;-16
2022/08/08 01:58:47;;;;;;;4.72;3.83;;;19.60;78.50;;;;;;5017116;28;20529;-16
2022/08/08 02:01:24;;;;;;;6.15;4.10;;;19.50;78.30;;;;;;5016945;28;20042;-16
2022/08/08 02:03:59;;;;;;;6.63;4.22;;;19.50;78.30;;;;;;5017327;28;20473;-16
2022/08/08 02:06:46;;;;;;;6.25;3.83;;;19.50;78.20;;;;;;5016914;28;20163;-15
2022/08/08 02:09:49;;;;;;;4.82;3.58;;;19.50;78.20;;;;;;5017386;28;20038;-15
2022/08/08 02:12:33;;;;;;;5.72;3.60;;;19.60;78.10;;;;;;5016673;28;20498;-16
2022/08/08 02:15:28;;;;;;;4.47;3.30;;;19.50;78.00;;;;;;5016979;28;20393;-16
2022/08/08 02:18:29;;;;;;;4.90;3.35;;;19.50;78.00;;;;;;5016692;28;20036;-17
2022/08/08 02:24:23;;;;;;;4.47;3.17;;;19.50;78.00;;;;;;5016910;28;20053;-15
2022/08/08 02:27:00;;;;;;;4.63;3.30;;;19.50;77.90;;;;;;5016527;28;20034;-14
2022/08/08 02:29:53;;;;;;;3.35;2.80;;;19.50;77.80;;;;;;5016408;28;20030;-17
2022/08/08 02:32:44;;;;;;;2.85;2.60;;;19.50;77.60;;;;;;5016217;28;20434;-16
2022/08/08 02:35:52;;;;;;;3.60;2.88;;;19.50;77.40;;;;;;5016624;28;20049;-16
2022/08/08 02:38:36;;;;;;;3.58;3.00;;;19.60;77.30;;;;;;5016319;28;20030;-18
2022/08/08 02:41:34;;;;;;;4.15;2.90;;;19.60;76.90;;;;;;5016495;28;20124;-15
2022/08/08 02:44:37;;;;;;;2.47;2.20;;;19.60;76.70;;;;;;5016435;28;20041;-18
2022/08/08 02:47:40;;;;;;;4.82;2.92;;;19.70;76.40;;;;;;5016135;28;20397;-15
2022/08/08 02:50:40;;;;;;;3.20;2.40;;;19.70;76.10;;;;;;5016229;28;20038;-17
2022/08/08 02:53:17;;;;;;;5.78;2.90;;;19.80;75.70;;;;;;5015909;28;20037;-16
2022/08/08 02:56:00;;;;;;;3.10;2.60;;;19.80;75.30;;;;;;5016320;28;20030;-15
2022/08/08 02:58:48;;;;;;;3.42;2.58;;;19.90;74.90;;;;;;5015844;28;20034;-14
2022/08/08 03:01:49;;;;;;;2.65;2.30;;;19.90;74.50;;;;;;5016133;28;20026;-15
2022/08/08 03:04:59;;;;;;;2.50;2.28;;;20.00;74.30;;;;;;5015739;28;20049;-16
2022/08/08 03:08:02;;;;;;;3.00;2.60;;;20.00;74.00;;;;;;5016256;28;20109;-15
2022/08/08 03:10:40;;;;;;;2.83;2.58;;;20.10;73.70;;;;;;5015488;28;20030;-15
2022/08/08 03:13:28;;;;;;;2.60;2.35;;;20.10;73.30;;;;;;5016016;28;20022;-13
2022/08/08 03:16:26;;;;;;;4.07;2.80;;;20.20;73.30;;;;;;5015923;28;20100;-13
2022/08/08 03:18:52;;;;;;;4.45;2.70;;;20.20;73.30;;;;;;4975632;28;20058;-15
2022/08/08 03:21:17;;;;;;;3.08;2.60;;;20.20;73.20;;;;;;5016145;28;20057;-18
2022/08/08 03:23:44;;;;;;;3.33;2.75;;;20.20;73.10;;;;;;5015498;28;20501;-17
2022/08/08 03:26:10;;;;;;;2.78;2.47;;;20.20;73.00;;;;;;5015477;28;20524;-15
2022/08/08 03:28:47;;;;;;;3.97;2.80;;;20.10;73.50;;;;;;5015373;28;20030;-16
2022/08/08 03:33:57;;;;;;;3.55;2.50;;;20.00;73.50;;;;;;5015598;28;20032;-17
2022/08/08 03:36:23;;;;;;;5.35;3.15;;;20.00;74.20;;;;;;5015011;28;20101;-17
2022/08/08 03:38:51;;;;;;;5.78;2.70;;;19.90;74.40;;;;;;5015416;28;20032;-16
2022/08/08 03:41:17;;;;;;;3.15;2.47;;;19.90;75.00;;;;;;5015307;28;20402;-15
2022/08/08 03:43:57;;;;;;;4.18;2.90;;;19.80;75.10;;;;;;5014996;28;20048;-17
2022/08/08 03:46:24;;;;;;;3.47;2.80;;;19.70;75.50;;;;;;5014926;28;20058;-16
2022/08/08 03:48:57;;;;;;;3.65;2.50;;;19.70;75.70;;;;;;5015257;28;20038;-16
2022/08/08 03:51:23;;;;;;;4.40;3.10;;;19.60;75.90;;;;;;5015119;28;20038;-16
2022/08/08 03:53:53;;;;;;;5.25;3.05;;;19.50;75.90;;;;;;5014860;28;20040;-16
2022/08/08 03:56:21;;;;;;;4.20;3.20;;;19.50;76.80;;;;;;5014574;28;20117;-13
2022/08/08 03:58:51;;;;;;;3.63;3.03;;;19.40;76.70;;;;;;5015289;28;20022;-15
2022/08/08 04:01:19;;;;;;;4.22;3.53;;;19.40;76.80;;;;;;5014576;28;20053;-16
2022/08/08 04:03:47;;;;;;;4.95;3.25;;;19.40;77.10;;;;;;5014644;28;20032;-15
2022/08/08 04:06:14;;;;;;;5.63;2.90;;;19.30;77.30;;;;;;5014956;28;20022;-15
2022/08/08 04:08:41;;;;;;;4.97;3.20;;;19.20;77.30;;;;;;5014336;28;20089;-15
2022/08/08 04:11:08;;;;;;;3.20;2.80;;;19.20;77.50;;;;;;5014826;28;20052;-15
2022/08/08 04:13:34;;;;;;;4.03;3.50;;;19.20;77.40;;;;;;5015107;28;20030;-16
2022/08/08 04:16:00;;;;;;;5.07;3.25;;;19.20;77.50;;;;;;5014754;28;20034;-15
2022/08/08 04:18:26;;;;;;;5.05;3.38;;;19.20;77.70;;;;;;5014517;28;20026;-16
2022/08/08 04:20:52;;;;;;;6.90;4.05;;;19.20;77.70;;;;;;5014636;28;20061;-17
2022/08/08 04:23:18;;;;;;;4.32;3.22;;;19.20;77.90;;;;;;5014207;28;20191;-16
2022/08/08 04:25:44;;;;;;;3.42;2.85;;;19.20;78.00;;;;;;5014587;28;20030;-16
2022/08/08 04:28:10;;;;;;;5.85;3.13;;;19.20;77.90;;;;;;5014740;28;20505;-16
2022/08/08 04:30:36;;;;;;;5.43;3.53;;;19.30;77.80;;;;;;5014260;28;20105;-18
2022/08/08 04:33:02;;;;;;;10.00;4.50;;;19.30;77.90;;;;;;5014957;28;20053;-15
2022/08/08 04:35:28;;;;;;;7.95;4.97;;;19.40;77.70;;;;;;5014125;28;20084;-15
2022/08/08 04:37:54;;;;;;;10.88;6.07;;;19.40;77.60;;;;;;5014598;28;20389;-17
2022/08/08 04:40:21;;;;;;;12.18;5.68;;;19.50;77.50;;;;;;5014128;28;20022;-16
2022/08/08 04:42:48;;;;;;;9.05;4.72;;;19.50;77.50;;;;;;5014367;28;20034;-17
2022/08/08 04:45:14;;;;;;;14.30;6.55;;;19.60;77.30;;;;;;5013952;28;20033;-16
2022/08/08 04:47:40;;;;;;;25.05;12.27;;;19.70;77.20;;;;;;5014399;28;20413;-15
2022/08/08 04:50:07;;;;;;;27.35;15.90;;;19.70;77.20;;;;;;4996355;28;20033;-16
2022/08/08 04:52:33;;;;;;;50.83;29.27;;;19.80;77.00;;;;;;5013846;28;20026;-17
2022/08/08 04:54:59;;;;;;;37.67;22.02;;;19.90;77.10;;;;;;5013772;28;20030;-16
2022/08/08 04:57:24;;;;;;;41.38;24.20;;;19.90;76.70;;;;;;5013765;28;20034;-17
2022/08/08 04:59:50;;;;;;;33.50;18.35;;;20.00;76.60;;;;;;5013836;28;20053;-16
2022/08/08 05:02:16;;;;;;;25.65;14.77;;;20.00;76.40;;;;;;5013461;28;20030;-17
2022/08/08 05:04:43;;;;;;;23.08;13.38;;;20.10;76.40;;;;;;5013594;28;20054;-16
2022/08/08 05:07:08;;;;;;;22.55;12.02;;;20.10;76.30;;;;;;4996050;28;20589;-17
2022/08/08 05:09:34;;;;;;;22.42;11.52;;;20.20;76.10;;;;;;5013511;28;20106;-16
2022/08/08 05:12:02;;;;;;;19.98;10.40;;;20.30;76.10;;;;;;5012985;28;20146;-15
2022/08/08 05:14:29;;;;;;;20.15;9.73;;;20.40;75.90;;;;;;5013387;28;20026;-15
2022/08/08 05:16:54;;;;;;;14.82;8.40;;;20.40;75.70;;;;;;5013485;28;20037;-15
2022/08/08 05:19:21;;;;;;;18.40;9.95;;;20.50;75.70;;;;;;5013685;28;20018;-16
2022/08/08 05:21:48;;;;;;;38.88;19.17;;;20.70;75.60;;;;;;5013629;28;20109;-15
2022/08/08 05:24:15;;;;;;;26.33;14.57;;;20.70;75.40;;;;;;5013470;28;20025;-16
2022/08/08 05:26:45;;;;;;;16.77;9.85;;;20.90;75.20;;;;;;5013549;28;20034;-15
2022/08/08 05:29:12;;;;;;;14.63;9.10;;;20.90;74.90;;;;;;5013275;28;20053;-14
2022/08/08 05:31:38;;;;;;;10.50;6.53;;;21.10;74.60;;;;;;5013634;28;20037;-15
2022/08/08 05:34:10;;;;;;;8.88;6.50;;;21.20;74.20;;;;;;5013398;28;20050;-16
2022/08/08 05:36:38;;;;;;;7.80;5.20;;;21.40;74.00;;;;;;5013369;28;20044;-14
2022/08/08 05:39:05;;;;;;;9.45;5.30;;;21.50;73.60;;;;;;4996104;28;20033;-16
2022/08/08 05:41:35;;;;;;;10.48;4.88;;;21.60;73.40;;;;;;5013406;28;20030;-15
2022/08/08 05:44:13;;;;;;;10.40;5.85;;;21.80;73.10;;;;;;5013208;28;20559;-15
2022/08/08 05:46:40;;;;;;;6.95;4.55;;;21.90;72.70;;;;;;5013096;28;20026;-15
2022/08/08 05:49:09;;;;;;;8.68;5.72;;;22.00;72.40;;;;;;5013027;28;20022;-15
2022/08/08 05:51:35;;;;;;;9.43;6.95;;;22.20;72.00;;;;;;5013248;28;20030;-16
2022/08/08 05:54:02;;;;;;;10.82;7.50;;;22.40;71.40;;;;;;5013112;28;20026;-15
2022/08/08 05:56:30;;;;;;;13.70;9.95;;;22.50;70.90;;;;;;5013123;28;20495;-15
2022/08/08 05:59:03;;;;;;;20.15;15.43;;;22.70;70.80;;;;;;4995554;28;20034;-15
2022/08/08 06:01:30;;;;;;;24.75;17.88;;;22.90;70.30;;;;;;5013089;28;20492;-17
2022/08/08 06:04:03;;;;;;;18.30;12.27;;;23.00;69.90;;;;;;5012948;28;20049;-16
2022/08/08 06:06:31;;;;;;;31.88;24.52;;;23.20;69.40;;;;;;4995237;28;20394;-16
2022/08/08 06:09:03;;;;;;;15.80;10.95;;;23.40;69.00;;;;;;5013231;28;20142;-15
2022/08/08 06:11:31;;;;;;;10.13;7.33;;;23.60;68.90;;;;;;5012959;28;20485;-17
2022/08/08 06:14:00;;;;;;;12.38;6.82;;;23.70;68.60;;;;;;5013533;28;20481;-16
2022/08/08 06:16:27;;;;;;;7.68;5.40;;;23.90;68.30;;;;;;5013003;28;20029;-15
2022/08/08 06:18:54;;;;;;;6.20;3.88;;;24.10;68.00;;;;;;5012882;28;20037;-15
2022/08/08 06:21:21;;;;;;;6.30;3.88;;;24.30;67.50;;;;;;5013171;28;20053;-16
2022/08/08 06:23:47;;;;;;;5.45;3.30;;;24.40;66.90;;;;;;5014713;28;20026;-16
2022/08/08 06:26:14;;;;;;;3.53;2.80;;;24.50;66.70;;;;;;5016446;28;20081;-15
2022/08/08 06:28:46;;;;;;;3.83;3.17;;;24.60;66.60;;;;;;5016434;28;20437;-15
2022/08/08 06:31:18;;;;;;;6.03;3.10;;;24.70;66.20;;;;;;5016420;28;20033;-17
2022/08/08 06:34:16;;;;;;;5.25;3.25;;;24.90;66.00;;;;;;5016407;28;20034;-17
2022/08/08 06:36:44;;;;;;;4.55;3.45;;;25.00;65.40;;;;;;5016754;28;20022;-15
2022/08/08 06:39:13;;;;;;;2.97;2.78;;;25.20;65.40;;;;;;5016687;28;20026;-16
2022/08/08 06:42:01;;;;;;;7.13;3.35;;;25.30;65.00;;;;;;5016260;28;20159;-14
2022/08/08 06:44:28;;;;;;;3.58;2.92;;;25.40;64.20;;;;;;4998500;28;20022;-15
2022/08/08 06:46:55;;;;;;;3.30;2.80;;;25.50;64.30;;;;;;5016215;28;20029;-15
2022/08/08 06:49:21;;;;;;;4.35;3.47;;;25.50;64.30;;;;;;5016189;28;20493;-17
2022/08/08 06:51:47;;;;;;;4.07;3.08;;;25.60;64.10;;;;;;5016109;28;20030;-17
2022/08/08 06:54:13;;;;;;;4.20;3.25;;;25.70;64.20;;;;;;4998428;28;20030;-16
2022/08/08 06:56:39;;;;;;;4.25;2.85;;;25.80;63.90;;;;;;5015805;28;20026;-17
2022/08/08 06:59:05;;;;;;;4.10;3.00;;;26.00;63.40;;;;;;5016323;28;20482;-14
2022/08/08 07:01:45;;;;;;;4.53;3.10;;;26.20;62.70;;;;;;5016049;28;20026;-14
2022/08/08 07:04:54;;;;;;;5.18;3.40;;;26.40;62.10;;;;;;5015865;28;20054;-14
2022/08/08 07:07:43;;;;;;;4.10;2.92;;;26.60;61.00;;;;;;4978409;28;20544;-13
2022/08/08 07:10:10;;;;;;;9.10;3.58;;;26.90;60.40;;;;;;4977177;28;20096;-16
2022/08/08 07:13:03;;;;;;;5.43;3.70;;;27.20;60.60;;;;;;5015519;28;20383;-15
2022/08/08 07:15:40;;;;;;;3.92;3.53;;;27.60;59.00;;;;;;5014931;28;20088;-15
2022/08/08 07:18:08;;;;;;;8.60;3.70;;;28.00;54.00;;;;;;5015776;28;20033;-15
2022/08/08 07:20:43;;;;;;;5.45;3.85;;;28.40;54.60;;;;;;5015573;28;20026;-14
2022/08/08 07:23:20;;;;;;;5.03;3.90;;;28.70;49.00;;;;;;5015594;28;20033;-15
2022/08/08 07:25:49;;;;;;;5.50;3.55;;;28.90;50.70;;;;;;5015650;28;20034;-15
2022/08/08 07:28:18;;;;;;;6.05;3.80;;;29.10;49.20;;;;;;5015527;28;20116;-15
2022/08/08 07:30:45;;;;;;;4.25;3.85;;;29.30;49.90;;;;;;5015293;28;20474;-14
2022/08/08 07:33:14;;;;;;;3.95;3.33;;;29.50;50.00;;;;;;5015215;28;20022;-14
2022/08/08 07:35:41;;;;;;;4.10;3.65;;;29.70;49.70;;;;;;5014232;28;20034;-15
2022/08/08 07:38:10;;;;;;;6.22;3.92;;;29.80;48.10;;;;;;5015067;28;20033;-14
2022/08/08 07:40:37;;;;;;;3.95;3.55;;;29.90;45.90;;;;;;5015234;28;20057;-14
2022/08/08 07:43:05;;;;;;;4.45;3.95;;;29.80;47.60;;;;;;5015644;28;20343;-15
2022/08/08 07:45:31;;;;;;;4.25;3.72;;;29.90;46.50;;;;;;5015345;28;20022;-15
2022/08/08 07:47:57;;;;;;;4.88;3.95;;;30.00;48.20;;;;;;5015204;28;20079;-15
2022/08/08 07:50:24;;;;;;;7.57;3.70;;;30.00;45.50;;;;;;4997169;28;20061;-15
2022/08/08 07:52:57;;;;;;;6.93;4.10;;;30.10;47.90;;;;;;5014791;28;20037;-15
2022/08/08 07:55:29;;;;;;;4.40;4.00;;;30.20;43.80;;;;;;5014817;28;20045;-15
2022/08/08 07:58:07;;;;;;;6.00;4.30;;;30.30;44.30;;;;;;5015014;28;20501;-15
2022/08/08 08:00:42;;;;;;;6.10;4.22;;;30.30;43.50;;;;;;5014624;28;20477;-15
2022/08/08 08:03:11;;;;;;;4.63;3.85;;;30.50;45.20;;;;;;5014758;28;20033;-15
2022/08/08 08:05:44;;;;;;;6.65;4.28;;;30.70;45.70;;;;;;5014566;28;20125;-17
2022/08/08 08:08:26;;;;;;;7.40;4.30;;;30.90;44.70;;;;;;5014417;28;20116;-15
2022/08/08 08:10:56;;;;;;;7.72;4.30;;;31.20;43.60;;;;;;5015192;28;20046;-16
2022/08/08 08:13:34;;;;;;;7.53;4.57;;;31.30;44.50;;;;;;5014827;28;20108;-16
2022/08/08 08:16:04;;;;;;;5.43;3.83;;;31.40;42.00;;;;;;4996960;28;20475;-16
2022/08/08 08:18:33;;;;;;;6.30;4.60;;;31.60;42.80;;;;;;5014431;28;20025;-16
2022/08/08 08:21:01;;;;;;;5.72;4.47;;;31.90;43.60;;;;;;5014480;28;20040;-16
2022/08/08 08:23:27;;;;;;;6.05;4.53;;;31.90;41.90;;;;;;5014533;28;20567;-15
2022/08/08 08:25:53;;;;;;;7.15;4.53;;;31.70;42.60;;;;;;5014279;28;20030;-16
2022/08/08 08:28:21;;;;;;;5.85;4.60;;;31.40;43.70;;;;;;5013923;28;20036;-16
2022/08/08 08:30:48;;;;;;;5.90;4.38;;;30.90;44.30;;;;;;5014959;28;20026;-16
2022/08/08 08:33:14;;;;;;;6.32;4.75;;;30.80;44.40;;;;;;5014209;28;20533;-16
2022/08/08 08:35:40;;;;;;;7.70;4.70;;;30.70;45.10;;;;;;5014272;28;20500;-16
2022/08/08 08:38:06;;;;;;;5.55;4.75;;;30.60;45.10;;;;;;5014288;28;20030;-15
2022/08/08 08:40:33;;;;;;;5.50;4.43;;;30.40;45.20;;;;;;5013939;28;20022;-15
2022/08/08 08:43:00;;;;;;;5.55;4.65;;;30.40;43.70;;;;;;5014347;28;20030;-15
2022/08/08 08:45:26;;;;;;;6.22;4.80;;;30.00;45.70;;;;;;5014331;28;20388;-15
2022/08/08 08:47:54;;;;;;;6.30;4.78;;;29.90;45.40;;;;;;5014362;28;20022;-15
2022/08/08 08:50:27;;;;;;;7.50;4.57;;;29.90;46.70;;;;;;5013768;28;20025;-15
2022/08/08 08:52:58;;;;;;;7.53;4.80;;;30.00;45.80;;;;;;5013902;28;20493;-16
2022/08/08 08:55:26;;;;;;;9.02;4.55;;;30.10;46.40;;;;;;5014467;28;20022;-15
2022/08/08 08:57:54;;;;;;;5.80;4.43;;;30.20;46.10;;;;;;5014357;28;20033;-16
2022/08/08 09:00:21;;;;;;;5.50;4.57;;;30.30;45.60;;;;;;5013785;28;20032;-16
2022/08/08 09:02:49;;;;;;;6.68;4.60;;;30.60;45.40;;;;;;5013998;28;20030;-15
2022/08/08 09:05:17;;;;;;;6.05;4.70;;;30.70;45.00;;;;;;5013369;28;20077;-15
2022/08/08 09:07:46;;;;;;;6.10;4.57;;;30.90;45.70;;;;;;5013696;28;20038;-14
2022/08/08 09:10:15;;;;;;;6.03;4.80;;;31.20;45.30;;;;;;5013560;28;20026;-15
2022/08/08 09:12:46;;;;;;;6.07;4.68;;;31.60;43.80;;;;;;5014063;28;20030;-15
2022/08/08 09:15:13;;;;;;;5.53;4.43;;;32.10;43.00;;;;;;5013682;28;20427;-15
2022/08/08 09:17:40;;;;;;;8.73;5.00;;;32.30;42.60;;;;;;5014083;28;20026;-15
2022/08/08 09:20:09;;;;;;;6.68;4.75;;;32.40;42.40;;;;;;5013468;28;20025;-15
2022/08/08 09:22:36;;;;;;;6.05;4.45;;;32.40;42.40;;;;;;5013134;28;20026;-15
2022/08/08 09:25:05;;;;;;;6.40;4.35;;;32.50;42.00;;;;;;5013625;28;20021;-16
2022/08/08 09:27:31;;;;;;;5.68;4.85;;;32.40;41.90;;;;;;5013700;28;20489;-15
2022/08/08 09:30:05;;;;;;;6.65;4.65;;;32.30;41.60;;;;;;5013507;28;20029;-15
2022/08/08 09:32:38;;;;;;;6.57;4.57;;;32.20;42.40;;;;;;5013065;28;20025;-15
2022/08/08 09:35:10;;;;;;;6.85;5.32;;;32.20;42.60;;;;;;5013266;28;20026;-15
2022/08/08 09:38:00;;;;;;;8.30;5.10;;;32.20;43.40;;;;;;5013449;28;20033;-15
2022/08/08 09:40:28;;;;;;;7.50;5.22;;;32.20;42.50;;;;;;5013338;28;20018;-17
2022/08/08 09:43:08;;;;;;;12.18;5.85;;;31.90;42.00;;;;;;5013483;28;20489;-14
2022/08/08 09:46:00;;;;;;;9.73;5.93;;;31.70;42.60;;;;;;5013553;28;20109;-16
2022/08/08 09:48:32;;;;;;;12.55;5.00;;;31.60;44.00;;;;;;5012982;28;20033;-15
2022/08/08 09:51:00;;;;;;;8.00;5.45;;;31.60;44.10;;;;;;5013454;28;20033;-16
2022/08/08 09:53:55;;;;;;;5.70;5.10;;;31.60;43.50;;;;;;5081664;22;20133;-17
2022/08/08 09:56:21;;;;;;;9.63;5.50;;;31.70;44.00;;;;;;5012888;28;20073;-17
2022/08/08 09:58:56;;;;;;;8.25;5.55;;;32.00;43.30;;;;;;5014530;28;20056;-17
2022/08/08 10:01:27;;;;;;;7.75;5.30;;;32.40;41.50;;;;;;5017308;28;20025;-16
2022/08/08 10:03:56;;;;;;;6.60;5.13;;;32.90;40.50;;;;;;4999507;28;20030;-15
2022/08/08 10:06:22;;;;;;;8.90;5.47;;;33.40;40.60;;;;;;5016788;28;20022;-15
2022/08/08 10:08:50;;;;;;;5.93;5.30;;;33.70;40.20;;;;;;5016969;28;20083;-16
2022/08/08 10:11:17;;;;;;;7.95;5.68;;;33.80;39.20;;;;;;5017113;28;20404;-15
2022/08/08 10:14:00;;;;;;;7.15;5.15;;;34.00;39.80;;;;;;5017081;28;20056;-16
2022/08/08 10:16:39;;;;;;;6.85;5.18;;;34.20;41.60;;;;;;5016584;28;20050;-15
2022/08/08 10:19:08;;;;;;;6.70;5.07;;;34.30;39.80;;;;;;5016956;28;20461;-15
2022/08/08 10:21:36;;;;;;;6.38;5.22;;;34.40;39.80;;;;;;5017097;28;20074;-15
2022/08/08 10:24:08;;;;;;;7.57;5.03;;;34.40;38.80;;;;;;5016700;28;20097;-15
2022/08/08 10:26:40;;;;;;;7.38;5.05;;;34.60;38.00;;;;;;5016487;28;20038;-16
2022/08/08 10:29:11;;;;;;;6.72;5.22;;;34.70;37.20;;;;;;5016792;28;20133;-15
2022/08/08 10:34:25;;;;;;;9.48;5.55;;;34.50;38.10;;;;;;5016860;28;20051;-14
2022/08/08 10:36:52;;;;;;;7.82;5.75;;;34.50;39.40;;;;;;5016870;28;20048;-15
2022/08/08 10:39:21;;;;;;;10.40;5.88;;;34.50;38.10;;;;;;5016211;28;20030;-15
2022/08/08 10:41:58;;;;;;;6.40;5.43;;;34.80;38.60;;;;;;5016564;28;20026;-14
2022/08/08 10:44:37;;;;;;;5.68;5.10;;;35.20;36.90;;;;;;4998512;28;20378;-15
2022/08/08 10:47:14;;;;;;;6.78;5.70;;;35.30;36.50;;;;;;5016539;28;20107;-17
2022/08/08 10:49:54;;;;;;;8.07;5.85;;;35.50;35.90;;;;;;5016090;28;20022;-14
2022/08/08 10:52:25;;;;;;;9.50;5.47;;;35.50;35.70;;;;;;5016193;28;20048;-16
2022/08/08 10:55:04;;;;;;;6.38;5.35;;;35.60;36.50;;;;;;5015760;28;20049;-17
2022/08/08 10:57:35;;;;;;;9.68;5.75;;;35.80;36.80;;;;;;5016355;28;20041;-15
2022/08/08 11:00:01;;;;;;;6.05;5.43;;;36.10;36.70;;;;;;5016120;28;20026;-15
2022/08/08 11:02:31;;;;;;;6.72;5.40;;;36.30;36.20;;;;;;5015766;28;20065;-15
2022/08/08 11:04:59;;;;;;;6.88;5.20;;;36.50;36.10;;;;;;5016288;28;20547;-15
2022/08/08 11:07:31;;;;;;;6.90;5.50;;;36.50;35.00;;;;;;5016023;28;20061;-14
2022/08/08 11:10:04;;;;;;;5.30;4.78;;;36.10;35.60;;;;;;5014954;28;20022;-15
2022/08/08 11:12:33;;;;;;;5.70;5.00;;;35.90;35.80;;;;;;5015565;28;20034;-15
2022/08/08 11:15:00;;;;;;;9.50;5.72;;;35.90;36.10;;;;;;5015573;28;20029;-15
2022/08/08 11:17:29;;;;;;;6.85;5.40;;;35.80;35.40;;;;;;5015934;28;20049;-15
2022/08/08 11:19:56;;;;;;;6.28;5.47;;;35.70;36.60;;;;;;5015592;28;20015;-15
2022/08/08 11:22:30;;;;;;;7.07;5.43;;;35.80;36.20;;;;;;5015682;28;20504;-15
2022/08/08 11:25:05;;;;;;;8.50;5.55;;;36.00;36.20;;;;;;5015340;28;20511;-15
2022/08/08 11:27:34;;;;;;;5.93;5.13;;;36.10;35.90;;;;;;5015482;28;20541;-15
2022/08/08 11:30:03;;;;;;;6.72;5.18;;;36.30;35.20;;;;;;5015886;28;20018;-15
2022/08/08 11:32:30;;;;;;;6.93;5.30;;;36.60;34.90;;;;;;5015368;28;20072;-15
2022/08/08 11:35:05;;;;;;;7.22;5.00;;;37.10;35.40;;;;;;5015525;28;20440;-15
2022/08/08 11:37:34;;;;;;;7.80;5.57;;;37.50;34.30;;;;;;5015346;28;20401;-15
2022/08/08 11:40:01;;;;;;;8.90;5.60;;;37.50;34.40;;;;;;5015130;28;20026;-15
2022/08/08 11:42:28;;;;;;;8.45;5.55;;;37.70;34.10;;;;;;5014988;28;20511;-17
2022/08/08 11:44:57;;;;;;;8.27;5.38;;;37.70;34.70;;;;;;4997497;28;20447;-15
2022/08/08 11:47:24;;;;;;;6.70;5.43;;;37.80;34.30;;;;;;5015717;28;20030;-15
2022/08/08 11:49:54;;;;;;;6.20;4.90;;;37.90;33.20;;;;;;5015082;28;20021;-14
2022/08/08 11:52:22;;;;;;;10.20;5.90;;;38.40;33.40;;;;;;5014653;28;20030;-15
2022/08/08 11:54:48;;;;;;;6.38;5.18;;;38.80;32.40;;;;;;5014626;28;20137;-15
2022/08/08 11:57:27;;;;;;;5.75;4.82;;;39.30;32.30;;;;;;5015191;28;20029;-17
2022/08/08 12:00:00;;;;;;;5.82;5.10;;;39.50;31.50;;;;;;5015134;28;20030;-16
2022/08/08 12:02:29;;;;;;;7.28;5.63;;;39.50;31.00;;;;;;5014511;28;20037;-15
2022/08/08 12:05:11;;;;;;;6.20;4.82;;;39.10;32.70;;;;;;5015325;28;20029;-15
2022/08/08 12:07:51;;;;;;;6.20;5.03;;;39.40;30.50;;;;;;5015233;28;20481;-15
2022/08/08 12:10:22;;;;;;;6.60;5.90;;;39.80;30.70;;;;;;5014884;28;20030;-16
2022/08/08 12:12:50;;;;;;;6.53;5.20;;;39.60;29.40;;;;;;5014531;28;20076;-15
2022/08/08 12:15:30;;;;;;;6.65;4.85;;;39.70;30.60;;;;;;4997300;28;20030;-15
2022/08/08 12:17:56;;;;;;;6.57;5.28;;;40.20;30.90;;;;;;5014832;28;20029;-15
2022/08/08 12:20:23;;;;;;;6.60;5.25;;;40.30;30.90;;;;;;5014343;28;20034;-15
2022/08/08 12:22:51;;;;;;;7.18;5.20;;;40.10;30.90;;;;;;5014342;28;20022;-14
2022/08/08 12:25:23;;;;;;;6.13;5.03;;;39.90;31.50;;;;;;5014613;28;20037;-14
2022/08/08 12:27:50;;;;;;;5.57;5.07;;;39.70;31.50;;;;;;5014400;28;20022;-15
2022/08/08 12:30:27;;;;;;;5.55;4.90;;;39.90;31.50;;;;;;5014640;28;20026;-15
2022/08/08 12:32:57;;;;;;;5.70;5.10;;;40.20;30.70;;;;;;5014601;28;20100;-15
2022/08/08 12:35:23;;;;;;;5.93;5.32;;;40.40;31.00;;;;;;5014192;28;20061;-15
2022/08/08 12:38:06;;;;;;;6.47;5.18;;;40.30;30.60;;;;;;4996840;28;20061;-15
2022/08/08 12:40:41;;;;;;;6.38;5.25;;;40.60;29.50;;;;;;5013898;28;20034;-16
2022/08/08 12:43:08;;;;;;;5.95;5.13;;;40.70;29.40;;;;;;5014044;28;20025;-15
2022/08/08 12:45:41;;;;;;;8.90;5.28;;;39.70;30.40;;;;;;5014012;28;20022;-14
2022/08/08 12:48:17;;;;;;;6.38;4.93;;;39.70;29.60;;;;;;5013862;28;20389;-14
2022/08/08 12:50:53;;;;;;;7.15;5.00;;;39.80;30.00;;;;;;5066770;22;20065;-14
2022/08/08 12:53:28;;;;;;;7.30;4.80;;;40.10;30.00;;;;;;5014273;28;20022;-14
2022/08/08 12:56:06;;;;;;;6.90;5.55;;;40.40;29.80;;;;;;5014135;28;20022;-14
2022/08/08 12:58:48;;;;;;;6.53;4.80;;;40.00;29.20;;;;;;5012379;28;20029;-14
2022/08/08 13:01:14;;;;;;;6.15;5.10;;;40.20;29.20;;;;;;5013850;28;20026;-14
2022/08/08 13:03:49;;;;;;;6.15;4.90;;;40.30;29.90;;;;;;5013741;28;20108;-15
2022/08/08 13:06:19;;;;;;;5.03;4.53;;;40.50;28.90;;;;;;5013434;28;20481;-15
2022/08/08 13:08:48;;;;;;;7.22;5.10;;;40.60;29.60;;;;;;5013596;28;20022;-14
2022/08/08 13:11:34;;;;;;;5.55;5.05;;;40.90;29.90;;;;;;5013887;28;20022;-15
2022/08/08 13:14:11;;;;;;;7.13;5.40;;;40.70;29.10;;;;;;5013940;28;20030;-14
2022/08/08 13:16:39;;;;;;;10.40;5.15;;;40.50;29.70;;;;;;5013452;28;20026;-14
2022/08/08 13:19:06;;;;;;;6.32;4.97;;;40.10;30.20;;;;;;5013784;28;20030;-14
2022/08/08 13:21:43;;;;;;;5.40;4.53;;;39.70;30.50;;;;;;5014101;28;20076;-14
2022/08/08 13:24:10;;;;;;;5.82;4.72;;;40.00;30.20;;;;;;5013850;28;20076;-14
2022/08/08 13:26:36;;;;;;;8.65;5.07;;;40.40;30.00;;;;;;5013359;28;20018;-14
2022/08/08 13:29:13;;;;;;;9.25;4.85;;;40.80;29.60;;;;;;5013329;28;20038;-14
2022/08/08 13:31:50;;;;;;;5.63;5.13;;;41.00;29.90;;;;;;5013352;28;20084;-14
2022/08/08 13:34:24;;;;;;;5.25;4.75;;;40.50;29.80;;;;;;5012283;28;20451;-14